createdAt,value
2023-04-29T00:01:25.843Z,12.73
2023-04-29T00:03:53.665Z,12.36
2023-04-29T00:06:21.495Z,12.41
2023-04-29T00:08:48.726Z,12.50
2023-04-29T00:11:16.079Z,12.53
2023-04-29T00:13:43.174Z,12.54
2023-04-29T00:16:10.356Z,12.51
2023-04-29T00:18:37.939Z,12.37
2023-04-29T00:21:08.105Z,12.43
2023-04-29T00:23:35.330Z,12.35
2023-04-29T00:26:03.116Z,12.65
2023-04-29T00:28:30.193Z,12.73
2023-04-29T00:30:57.812Z,12.73
2023-04-29T00:33:24.929Z,12.44
2023-04-29T00:35:51.997Z,12.29
2023-04-29T00:38:19.057Z,12.58
2023-04-29T00:40:46.201Z,12.55
2023-04-29T00:43:13.759Z,12.63
2023-04-29T00:45:40.961Z,12.51
2023-04-29T00:48:08.149Z,12.53
2023-04-29T00:50:36.602Z,12.58
2023-04-29T00:53:04.355Z,12.60
2023-04-29T00:55:33.175Z,12.48
2023-04-29T00:58:02.613Z,12.63
2023-04-29T01:00:30.384Z,12.71
2023-04-29T01:02:59.755Z,12.69
2023-04-29T01:05:27.718Z,12.48
2023-04-29T01:08:18.366Z,12.58
2023-04-29T01:11:01.036Z,12.39
2023-04-29T01:13:37.771Z,12.25
2023-04-29T01:16:11.844Z,12.22
2023-04-29T01:18:41.158Z,12.06
2023-04-29T01:21:08.979Z,11.89
2023-04-29T01:23:35.986Z,11.56
2023-04-29T01:26:03.098Z,11.00
2023-04-29T01:28:59.087Z,10.93
2023-04-29T01:31:41.452Z,10.90
2023-04-29T01:34:17.368Z,10.85
2023-04-29T01:37:00.707Z,10.76
2023-04-29T01:39:35.780Z,10.85
2023-04-29T01:42:25.154Z,10.84
2023-04-29T01:44:56.556Z,10.87
2023-04-29T01:47:25.472Z,10.80
2023-04-29T01:49:54.635Z,10.88
2023-04-29T01:52:23.111Z,10.90
2023-04-29T01:54:57.291Z,10.92
2023-04-29T01:57:25.864Z,10.80
2023-04-29T02:00:06.674Z,10.92
2023-04-29T02:02:51.112Z,10.42
2023-04-29T02:05:34.367Z,10.83
2023-04-29T02:08:02.667Z,10.87
2023-04-29T02:10:31.569Z,10.69
2023-04-29T02:13:21.342Z,10.86
2023-04-29T02:15:49.244Z,10.94
2023-04-29T02:18:16.930Z,10.93
2023-04-29T02:20:44.422Z,10.93
2023-04-29T02:23:11.457Z,10.93
2023-04-29T02:25:38.662Z,10.89
2023-04-29T02:28:05.734Z,11.05
2023-04-29T02:30:32.770Z,11.00
2023-04-29T02:32:59.939Z,10.92
2023-04-29T02:35:26.984Z,10.91
2023-04-29T02:37:55.237Z,11.03
2023-04-29T02:40:22.285Z,10.80
2023-04-29T02:42:49.249Z,10.99
2023-04-29T02:45:16.358Z,10.84
2023-04-29T02:47:44.796Z,10.75
2023-04-29T02:50:11.871Z,10.77
2023-04-29T02:52:41.679Z,10.72
2023-04-29T02:55:09.412Z,10.83
2023-04-29T02:57:36.474Z,10.80
2023-04-29T03:00:03.890Z,10.76
2023-04-29T03:02:31.042Z,10.81
2023-04-29T03:04:59.607Z,10.70
2023-04-29T03:07:27.894Z,10.78
2023-04-29T03:09:55.406Z,10.88
2023-04-29T03:12:22.630Z,10.85
2023-04-29T03:14:49.835Z,10.81
2023-04-29T03:17:16.880Z,10.71
2023-04-29T03:19:44.048Z,10.66
2023-04-29T03:22:11.909Z,10.65
2023-04-29T03:24:41.367Z,10.46
2023-04-29T03:27:08.489Z,10.43
2023-04-29T03:29:35.642Z,10.68
2023-04-29T03:32:03.046Z,10.62
2023-04-29T03:34:31.226Z,10.47
2023-04-29T03:37:13.134Z,10.44
2023-04-29T03:39:44.105Z,10.53
2023-04-29T03:42:11.230Z,10.57
2023-04-29T03:44:38.770Z,10.38
2023-04-29T03:47:06.638Z,10.03
2023-04-29T03:49:34.210Z,10.30
2023-04-29T03:52:01.422Z,9.94
2023-04-29T03:54:28.703Z,10.26
2023-04-29T03:56:56.537Z,10.34
2023-04-29T03:59:24.441Z,10.34
2023-04-29T04:01:54.116Z,10.36
2023-04-29T04:04:22.027Z,10.39
2023-04-29T04:06:51.878Z,10.27
2023-04-29T04:09:21.425Z,10.31
2023-04-29T04:11:48.677Z,10.32
2023-04-29T04:14:16.222Z,10.28
2023-04-29T04:16:43.240Z,10.30
2023-04-29T04:19:10.512Z,10.30
2023-04-29T04:21:41.016Z,10.40
2023-04-29T04:24:10.063Z,10.21
2023-04-29T04:26:38.148Z,10.10
2023-04-29T04:29:22.387Z,10.01
2023-04-29T04:32:15.291Z,10.21
2023-04-29T04:34:42.467Z,10.35
2023-04-29T04:37:10.117Z,10.27
2023-04-29T04:39:38.898Z,10.31
2023-04-29T04:42:06.797Z,10.28
2023-04-29T04:44:34.468Z,10.35
2023-04-29T04:47:14.928Z,10.35
2023-04-29T04:49:58.150Z,10.36
2023-04-29T04:52:25.163Z,10.34
2023-04-29T04:55:17.752Z,10.39
2023-04-29T04:57:46.767Z,10.23
2023-04-29T05:00:14.086Z,10.32
2023-04-29T05:02:41.844Z,10.12
2023-04-29T05:05:09.176Z,10.34
2023-04-29T05:07:37.828Z,10.33
2023-04-29T05:10:06.740Z,10.42
2023-04-29T05:12:37.754Z,10.45
2023-04-29T05:15:05.260Z,10.06
2023-04-29T05:17:32.877Z,9.97
2023-04-29T05:20:00.032Z,10.40
2023-04-29T05:22:27.143Z,10.30
2023-04-29T05:24:55.178Z,10.25
2023-04-29T05:27:22.339Z,10.39
2023-04-29T05:29:49.408Z,10.43
2023-04-29T05:32:16.605Z,10.33
2023-04-29T05:34:44.758Z,10.49
2023-04-29T05:37:11.882Z,10.47
2023-04-29T05:39:54.021Z,10.41
2023-04-29T05:42:21.295Z,10.41
2023-04-29T05:44:51.207Z,10.52
2023-04-29T05:47:18.260Z,10.35
2023-04-29T05:49:45.692Z,10.50
2023-04-29T05:52:12.792Z,10.32
2023-04-29T05:54:45.265Z,10.28
2023-04-29T05:57:12.854Z,10.43
2023-04-29T05:59:40.777Z,10.42
2023-04-29T06:02:10.869Z,10.49
2023-04-29T06:04:41.402Z,10.48
2023-04-29T06:07:20.361Z,10.50
2023-04-29T06:10:17.006Z,10.32
2023-04-29T06:12:46.617Z,10.52
2023-04-29T06:15:13.743Z,10.29
2023-04-29T06:17:40.888Z,10.46
2023-04-29T06:20:09.381Z,10.72
2023-04-29T06:22:36.461Z,10.62
2023-04-29T06:25:05.994Z,10.53
2023-04-29T06:27:43.250Z,10.51
2023-04-29T06:30:11.468Z,10.52
2023-04-29T06:32:40.125Z,10.37
2023-04-29T06:35:08.244Z,10.54
2023-04-29T06:38:04.462Z,10.61
2023-04-29T06:41:06.652Z,10.54
2023-04-29T06:43:56.810Z,10.62
2023-04-29T06:46:42.932Z,10.52
2023-04-29T06:49:16.983Z,10.52
2023-04-29T06:51:44.095Z,10.69
2023-04-29T06:54:11.107Z,10.59
2023-04-29T06:56:38.163Z,10.46
2023-04-29T06:59:05.341Z,10.84
2023-04-29T07:01:32.414Z,10.92
2023-04-29T07:03:59.912Z,10.87
2023-04-29T07:06:27.220Z,10.93
2023-04-29T07:08:56.259Z,10.83
2023-04-29T07:11:24.793Z,10.77
2023-04-29T07:13:53.268Z,10.68
2023-04-29T07:16:22.134Z,10.89
2023-04-29T07:18:49.453Z,10.84
2023-04-29T07:21:16.506Z,11.16
2023-04-29T07:23:43.721Z,10.99
2023-04-29T07:26:15.865Z,10.90
2023-04-29T07:28:45.600Z,10.79
2023-04-29T07:31:12.772Z,10.77
2023-04-29T07:33:40.029Z,10.79
2023-04-29T07:36:07.773Z,11.12
2023-04-29T07:38:35.239Z,11.02
2023-04-29T07:41:04.419Z,11.29
2023-04-29T07:43:31.469Z,11.19
2023-04-29T07:45:58.508Z,11.37
2023-04-29T07:48:26.119Z,11.61
2023-04-29T07:50:53.610Z,11.58
2023-04-29T07:53:20.821Z,11.52
2023-04-29T07:55:47.929Z,11.47
2023-04-29T07:58:15.030Z,11.78
2023-04-29T08:00:42.070Z,11.69
2023-04-29T08:03:09.329Z,11.85
2023-04-29T08:05:36.766Z,11.70
2023-04-29T08:08:04.016Z,11.65
2023-04-29T08:10:31.889Z,11.49
2023-04-29T08:12:59.095Z,11.76
2023-04-29T08:15:26.392Z,11.67
2023-04-29T08:17:54.259Z,11.54
2023-04-29T08:20:21.481Z,11.79
2023-04-29T08:22:48.550Z,11.65
2023-04-29T08:25:15.907Z,11.63
2023-04-29T08:27:45.249Z,11.54
2023-04-29T08:30:12.671Z,11.44
2023-04-29T08:32:39.751Z,10.98
2023-04-29T08:35:07.544Z,11.22
2023-04-29T08:37:34.671Z,11.03
2023-04-29T08:40:02.173Z,10.72
2023-04-29T08:42:37.291Z,11.00
2023-04-29T08:45:05.076Z,10.97
2023-04-29T08:47:33.933Z,10.93
2023-04-29T08:50:05.686Z,10.94
2023-04-29T08:52:33.174Z,10.82
2023-04-29T08:55:02.536Z,10.68
2023-04-29T08:57:31.002Z,10.58
2023-04-29T08:59:59.736Z,10.73
2023-04-29T09:02:27.570Z,10.18
2023-04-29T09:05:06.267Z,10.38
2023-04-29T09:07:34.240Z,10.24
2023-04-29T09:10:04.251Z,10.43
2023-04-29T09:12:31.455Z,10.58
2023-04-29T09:14:59.966Z,10.53
2023-04-29T09:17:48.358Z,10.53
2023-04-29T09:20:21.631Z,10.72
2023-04-29T09:22:50.046Z,10.69
2023-04-29T09:25:17.731Z,10.68
2023-04-29T09:27:45.078Z,10.51
2023-04-29T09:30:13.528Z,10.70
2023-04-29T09:32:41.007Z,10.70
2023-04-29T09:35:28.162Z,10.90
2023-04-29T09:38:09.805Z,10.56
2023-04-29T09:40:50.135Z,10.60
2023-04-29T09:43:24.119Z,10.84
2023-04-29T09:45:51.663Z,10.67
2023-04-29T09:48:18.779Z,10.56
2023-04-29T09:50:59.617Z,10.56
2023-04-29T09:53:31.387Z,10.71
2023-04-29T09:56:01.635Z,10.45
2023-04-29T09:58:33.815Z,10.94
2023-04-29T10:01:02.739Z,11.00
2023-04-29T10:03:34.713Z,11.24
2023-04-29T10:06:03.899Z,11.45
2023-04-29T10:08:32.179Z,11.23
2023-04-29T10:11:03.917Z,11.46
2023-04-29T10:13:33.388Z,11.31
2023-04-29T10:16:03.848Z,11.35
2023-04-29T10:18:48.840Z,11.20
2023-04-29T10:21:18.605Z,11.23
2023-04-29T10:23:46.156Z,11.02
2023-04-29T10:26:15.191Z,10.79
2023-04-29T10:28:46.039Z,10.92
2023-04-29T10:31:14.585Z,10.98
2023-04-29T10:33:46.040Z,10.88
2023-04-29T10:36:14.925Z,11.36
2023-04-29T10:38:53.139Z,11.30
2023-04-29T10:41:28.604Z,11.51
2023-04-29T10:43:55.867Z,11.36
2023-04-29T10:46:26.634Z,11.62
2023-04-29T10:49:12.147Z,11.53
2023-04-29T10:51:45.861Z,11.10
2023-04-29T10:54:13.677Z,11.36
2023-04-29T10:56:51.143Z,11.39
2023-04-29T10:59:42.480Z,10.32
2023-04-29T11:02:12.361Z,10.70
2023-04-29T11:05:11.166Z,11.24
2023-04-29T11:07:38.561Z,11.44
2023-04-29T11:10:07.351Z,11.62
2023-04-29T11:12:34.413Z,11.61
2023-04-29T11:15:04.658Z,11.30
2023-04-29T11:17:36.668Z,11.20
2023-04-29T11:20:04.407Z,11.37
2023-04-29T11:22:33.664Z,11.62
2023-04-29T11:25:06.730Z,11.80
2023-04-29T11:27:38.576Z,11.68
2023-04-29T11:30:07.481Z,11.84
2023-04-29T11:32:40.729Z,11.52
2023-04-29T11:35:09.411Z,11.62
2023-04-29T11:37:37.532Z,11.73
2023-04-29T11:40:06.115Z,11.25
2023-04-29T11:42:40.618Z,11.37
2023-04-29T11:45:08.191Z,11.39
2023-04-29T11:47:35.318Z,11.29
2023-04-29T11:50:08.073Z,11.22
2023-04-29T11:52:36.920Z,11.50
2023-04-29T11:55:05.032Z,11.56
2023-04-29T11:57:32.344Z,11.48
2023-04-29T11:59:59.486Z,11.39
2023-04-29T12:02:34.062Z,11.59
2023-04-29T12:05:06.886Z,11.46
2023-04-29T12:07:34.911Z,11.35
2023-04-29T12:10:01.957Z,11.54
2023-04-29T12:12:31.428Z,11.31
2023-04-29T12:14:58.585Z,11.32
2023-04-29T12:17:25.859Z,11.09
2023-04-29T12:19:53.061Z,11.29
2023-04-29T12:22:20.345Z,11.05
2023-04-29T12:24:47.526Z,11.41
2023-04-29T12:27:14.874Z,11.55
2023-04-29T12:29:42.047Z,11.76
2023-04-29T12:32:16.631Z,11.65
2023-04-29T12:34:46.311Z,11.71
2023-04-29T12:37:15.039Z,11.79
2023-04-29T12:39:42.211Z,11.55
2023-04-29T12:42:18.021Z,11.95
2023-04-29T12:44:48.953Z,11.71
2023-04-29T12:47:16.793Z,11.66
2023-04-29T12:49:48.307Z,11.49
2023-04-29T12:52:15.792Z,11.61
2023-04-29T12:54:43.649Z,11.49
2023-04-29T12:57:11.936Z,11.90
2023-04-29T12:59:40.708Z,11.62
2023-04-29T13:02:07.970Z,12.25
2023-04-29T13:04:35.086Z,12.45
2023-04-29T13:07:02.477Z,12.44
2023-04-29T13:09:30.603Z,12.48
2023-04-29T13:11:57.819Z,12.50
2023-04-29T13:14:25.050Z,12.83
2023-04-29T13:16:52.269Z,12.85
2023-04-29T13:20:19.205Z,12.75
2023-04-29T13:27:06.719Z,12.67
2023-04-29T13:29:33.988Z,12.94
2023-04-29T13:32:01.197Z,12.62
2023-04-29T13:34:28.437Z,12.63
2023-04-29T13:36:55.478Z,12.44
2023-04-29T13:39:23.242Z,12.52
2023-04-29T13:41:51.537Z,12.04
2023-04-29T13:44:29.476Z,12.37
2023-04-29T13:47:01.571Z,12.61
2023-04-29T13:50:20.114Z,12.25
2023-04-29T13:58:08.190Z,11.36
2023-04-29T14:00:14.042Z,11.39
2023-04-29T14:05:25.815Z,11.40
2023-04-29T14:07:53.000Z,11.21
2023-04-29T14:10:20.101Z,11.33
2023-04-29T14:12:48.662Z,11.02
2023-04-29T14:15:16.294Z,11.15
2023-04-29T14:17:43.430Z,11.23
2023-04-29T14:20:11.058Z,11.26
2023-04-29T14:22:38.062Z,11.39
2023-04-29T14:25:05.629Z,11.42
2023-04-29T14:27:32.732Z,11.29
2023-04-29T14:29:59.749Z,11.51
2023-04-29T14:32:26.809Z,11.66
2023-04-29T14:34:54.256Z,11.81
2023-04-29T14:37:21.649Z,12.11
2023-04-29T14:39:48.655Z,12.01
2023-04-29T14:42:15.893Z,11.85
2023-04-29T14:44:42.880Z,12.37
2023-04-29T14:47:09.908Z,12.15
2023-04-29T14:49:36.907Z,12.41
2023-04-29T14:52:04.633Z,12.62
2023-04-29T14:54:31.747Z,12.73
2023-04-29T14:56:58.847Z,12.56
2023-04-29T14:59:25.934Z,12.48
2023-04-29T15:01:52.974Z,12.07
2023-04-29T15:04:20.005Z,12.41
2023-04-29T15:06:47.255Z,12.54
2023-04-29T15:09:14.301Z,12.82
2023-04-29T15:11:41.401Z,12.61
2023-04-29T15:14:08.554Z,12.72
2023-04-29T15:16:36.188Z,12.76
2023-04-29T15:19:03.335Z,12.63
2023-04-29T15:21:32.266Z,12.68
2023-04-29T15:23:59.245Z,12.69
2023-04-29T15:26:27.347Z,12.51
2023-04-29T15:28:54.680Z,12.60
2023-04-29T15:31:24.302Z,12.40
2023-04-29T15:33:54.715Z,12.51
2023-04-29T15:36:29.469Z,12.41
2023-04-29T15:38:56.889Z,12.13
2023-04-29T15:41:27.560Z,12.10
2023-04-29T15:43:57.214Z,11.96
2023-04-29T15:46:24.428Z,12.01
2023-04-29T15:48:51.523Z,12.03
2023-04-29T15:51:18.764Z,12.13
2023-04-29T15:53:45.785Z,12.03
2023-04-29T15:56:13.213Z,12.07
2023-04-29T15:58:40.228Z,11.80
2023-04-29T16:01:07.336Z,12.26
2023-04-29T16:03:34.726Z,12.27
2023-04-29T16:06:01.873Z,12.14
2023-04-29T16:08:28.927Z,12.16
2023-04-29T16:10:55.993Z,12.51
2023-04-29T16:13:23.060Z,12.42
2023-04-29T16:15:50.174Z,12.34
2023-04-29T16:18:17.823Z,12.53
2023-04-29T16:20:45.451Z,12.53
2023-04-29T16:23:12.580Z,12.49
2023-04-29T16:25:42.937Z,12.08
2023-04-29T16:28:10.059Z,12.25
2023-04-29T16:30:37.124Z,12.21
2023-04-29T16:33:04.459Z,12.14
2023-04-29T16:35:31.709Z,12.07
2023-04-29T16:37:58.716Z,12.10
2023-04-29T16:40:25.910Z,12.27
2023-04-29T16:42:53.369Z,11.95
2023-04-29T16:45:23.171Z,12.02
2023-04-29T16:47:51.690Z,11.97
2023-04-29T16:50:19.040Z,12.18
2023-04-29T16:52:46.095Z,12.28
2023-04-29T16:55:13.348Z,11.90
2023-04-29T16:57:40.403Z,12.08
2023-04-29T17:00:12.098Z,12.18
2023-04-29T17:02:43.011Z,12.33
2023-04-29T17:05:10.953Z,12.38
2023-04-29T17:07:38.292Z,12.25
2023-04-29T17:10:06.709Z,12.41
2023-04-29T17:12:33.772Z,12.14
2023-04-29T17:15:00.964Z,12.09
2023-04-29T17:17:28.284Z,12.31
2023-04-29T17:19:56.011Z,12.34
2023-04-29T17:22:23.375Z,12.15
2023-04-29T17:24:51.138Z,12.31
2023-04-29T17:27:18.342Z,12.02
2023-04-29T17:29:47.503Z,11.80
2023-04-29T17:32:17.268Z,12.16
2023-04-29T17:34:44.341Z,12.18
2023-04-29T17:37:11.398Z,12.06
2023-04-29T17:39:38.463Z,11.91
2023-04-29T17:42:05.583Z,12.09
2023-04-29T17:44:32.690Z,12.14
2023-04-29T17:46:59.661Z,11.98
2023-04-29T17:49:26.795Z,11.86
2023-04-29T17:51:53.834Z,11.65
2023-04-29T17:54:20.836Z,12.06
2023-04-29T17:56:47.821Z,11.88
2023-04-29T17:59:14.873Z,12.09
2023-04-29T18:01:42.710Z,11.76
2023-04-29T18:04:09.996Z,11.93
2023-04-29T18:06:37.125Z,11.86
2023-04-29T18:09:05.184Z,11.76
2023-04-29T18:11:32.746Z,11.76
2023-04-29T18:13:59.900Z,11.94
2023-04-29T18:16:27.262Z,11.89
2023-04-29T18:18:56.795Z,11.81
2023-04-29T18:21:25.785Z,11.82
2023-04-29T18:23:56.653Z,11.63
2023-04-29T18:26:24.490Z,11.79
2023-04-29T18:28:51.692Z,11.56
2023-04-29T18:31:20.057Z,11.30
2023-04-29T18:33:47.239Z,11.65
2023-04-29T18:36:14.508Z,11.51
2023-04-29T18:38:41.853Z,11.43
2023-04-29T18:41:09.206Z,11.51
2023-04-29T18:43:36.592Z,11.42
2023-04-29T18:46:03.799Z,11.43
2023-04-29T18:48:31.197Z,11.26
2023-04-29T18:51:00.098Z,11.22
2023-04-29T18:53:27.330Z,11.12
2023-04-29T18:55:54.582Z,11.31
2023-04-29T18:58:22.035Z,11.16
2023-04-29T19:00:49.094Z,11.17
2023-04-29T19:03:16.377Z,11.19
2023-04-29T19:05:43.959Z,11.28
2023-04-29T19:08:11.031Z,11.06
2023-04-29T19:10:38.078Z,11.17
2023-04-29T19:13:05.386Z,11.18
2023-04-29T19:15:32.596Z,11.13
2023-04-29T19:17:59.658Z,10.96
2023-04-29T19:20:27.138Z,11.24
2023-04-29T19:22:54.399Z,11.24
2023-04-29T19:25:21.697Z,11.11
2023-04-29T19:27:49.003Z,10.96
2023-04-29T19:30:16.533Z,11.00
2023-04-29T19:32:45.804Z,10.89
2023-04-29T19:35:12.931Z,10.93
2023-04-29T19:37:40.370Z,11.06
2023-04-29T19:40:10.510Z,11.00
2023-04-29T19:42:39.120Z,10.87
2023-04-29T19:45:07.718Z,11.00
2023-04-29T19:47:35.139Z,10.89
2023-04-29T19:50:02.706Z,11.00
2023-04-29T19:52:29.904Z,10.98
2023-04-29T19:54:57.095Z,10.84
2023-04-29T19:57:24.970Z,10.92
2023-04-29T19:59:52.675Z,10.95
2023-04-29T20:02:20.148Z,10.84
2023-04-29T20:04:48.124Z,10.72
2023-04-29T20:07:15.221Z,10.84
2023-04-29T20:09:42.725Z,10.78
2023-04-29T20:12:10.128Z,10.93
2023-04-29T20:14:37.228Z,10.81
2023-04-29T20:17:04.647Z,10.64
2023-04-29T20:19:31.948Z,10.86
2023-04-29T20:21:59.030Z,10.83
2023-04-29T20:24:26.758Z,10.81
2023-04-29T20:26:53.844Z,10.70
2023-04-29T20:29:21.313Z,10.52
2023-04-29T20:31:48.322Z,10.40
2023-04-29T20:34:15.536Z,10.43
2023-04-29T20:36:42.595Z,10.33
2023-04-29T20:39:09.756Z,10.32
2023-04-29T20:41:36.778Z,10.44
2023-04-29T20:44:04.394Z,10.29
2023-04-29T20:46:31.620Z,10.41
2023-04-29T20:48:58.758Z,10.29
2023-04-29T20:51:26.706Z,10.17
2023-04-29T20:53:53.767Z,10.21
2023-04-29T20:56:21.636Z,10.32
2023-04-29T20:58:48.739Z,10.31
2023-04-29T21:01:15.908Z,10.23
2023-04-29T21:03:43.073Z,9.59
2023-04-29T21:06:10.156Z,10.26
2023-04-29T21:08:37.289Z,10.23
2023-04-29T21:11:09.484Z,10.23
2023-04-29T21:13:36.807Z,10.23
2023-04-29T21:16:04.281Z,10.05
2023-04-29T21:18:31.323Z,9.97
2023-04-29T21:20:58.306Z,10.02
2023-04-29T21:23:25.451Z,10.26
2023-04-29T21:25:52.498Z,10.19
2023-04-29T21:28:19.499Z,10.08
2023-04-29T21:30:46.563Z,10.16
2023-04-29T21:33:13.603Z,10.12
2023-04-29T21:35:42.088Z,10.19
2023-04-29T21:38:09.302Z,10.18
2023-04-29T21:40:40.942Z,10.14
2023-04-29T21:43:09.606Z,9.87
2023-04-29T21:45:37.438Z,9.90
2023-04-29T21:48:12.333Z,9.92
2023-04-29T21:50:39.795Z,10.00
2023-04-29T21:53:07.214Z,9.98
2023-04-29T21:55:34.227Z,10.10
2023-04-29T21:58:01.399Z,9.91
2023-04-29T22:00:33.185Z,10.07
2023-04-29T22:03:01.563Z,10.10
2023-04-29T22:05:29.432Z,9.99
2023-04-29T22:07:59.015Z,10.05
2023-04-29T22:10:26.131Z,9.88
2023-04-29T22:12:53.250Z,9.87
2023-04-29T22:15:28.039Z,10.00
2023-04-29T22:17:57.236Z,9.91
2023-04-29T22:20:24.858Z,9.80
2023-04-29T22:22:52.314Z,9.89
2023-04-29T22:25:22.241Z,9.79
2023-04-29T22:27:50.265Z,9.92
2023-04-29T22:30:17.741Z,9.79
2023-04-29T22:32:44.978Z,9.79
2023-04-29T22:35:12.195Z,9.90
2023-04-29T22:37:39.217Z,9.88
2023-04-29T22:40:06.820Z,9.87
2023-04-29T22:42:33.897Z,9.39
2023-04-29T22:45:00.909Z,9.69
2023-04-29T22:47:28.052Z,9.38
2023-04-29T22:49:55.420Z,9.53
2023-04-29T22:52:22.631Z,9.44
2023-04-29T22:54:49.740Z,9.30
2023-04-29T22:57:16.776Z,9.31
2023-04-29T22:59:43.882Z,9.07
2023-04-29T23:02:11.910Z,9.06
2023-04-29T23:04:39.020Z,9.02
2023-04-29T23:07:06.103Z,8.78
2023-04-29T23:09:33.167Z,9.01
2023-04-29T23:12:00.162Z,8.93
2023-04-29T23:14:27.163Z,8.98
2023-04-29T23:16:54.236Z,8.89
2023-04-29T23:19:21.307Z,8.89
2023-04-29T23:21:48.299Z,8.72
2023-04-29T23:24:15.280Z,8.77
2023-04-29T23:26:42.288Z,8.64
2023-04-29T23:29:09.276Z,8.55
2023-04-29T23:31:36.407Z,8.53
2023-04-29T23:34:03.800Z,8.38
2023-04-29T23:36:31.244Z,8.24
2023-04-29T23:38:58.495Z,8.24
2023-04-29T23:41:25.541Z,8.14
2023-04-29T23:43:52.615Z,8.11
2023-04-29T23:46:19.667Z,7.91
2023-04-29T23:48:46.704Z,7.91
2023-04-29T23:51:13.732Z,8.03
2023-04-29T23:53:40.797Z,7.88
2023-04-29T23:56:07.963Z,8.06
2023-04-29T23:58:35.122Z,7.98
